Time;durP1;ratioP1;P1;durP2;ratioP2;P2;SDS_P1;SDS_P2;PMS_P1;PMS_P2;Temp;Humidity;BMP_temperature;BMP_pressure;BME280_temperature;BME280_humidity;BME280_pressure;Samples;Min_cycle;Max_cycle;Signal;HPM_P1;HPM_P2
2024/03/05 00:02:17;;;;;;;124.45;39.97;;;;;;;-144.05;91.10;56993.25;5013374;28;20122;-81
2024/03/05 00:04:43;;;;;;;141.18;41.88;;;7.10;99.90;;;-144.05;91.09;56959.28;5013361;28;20545;-80
2024/03/05 00:07:10;;;;;;;129.98;42.72;;;;;;;-144.05;91.03;56982.66;5011343;28;20050;-82
2024/03/05 00:09:36;;;;;;;132.32;41.03;;;4.10;99.90;;;-144.05;90.85;56984.78;5011312;28;20026;-81
2024/03/05 00:12:02;;;;;;;120.15;39.83;;;6.30;99.90;;;-144.05;90.82;56997.50;5012739;28;20028;-80
2024/03/05 00:14:29;;;;;;;128.55;40.80;;;3.50;99.90;;;-144.05;91.07;56969.91;5027647;28;20076;-81
2024/03/05 00:16:56;;;;;;;126.95;41.00;;;6.90;99.90;;;-144.05;90.78;56984.78;5013252;28;20026;-83
2024/03/05 00:19:24;;;;;;;126.40;41.10;;;;;;;-144.05;91.10;56944.41;5009089;28;20416;-82
2024/03/05 00:21:50;;;;;;;136.20;44.10;;;;;;;-144.05;91.06;57018.75;5011927;28;20032;-81
2024/03/05 00:24:16;;;;;;;143.95;43.65;;;6.50;99.90;;;-144.05;91.67;56991.13;5013296;28;20033;-80
2024/03/05 00:26:43;;;;;;;142.77;42.63;;;;;;;-144.05;91.93;56969.91;5010964;28;20364;-81
2024/03/05 00:29:09;;;;;;;143.93;45.15;;;;;;;-144.05;92.14;56955.03;5012836;28;20073;-83
2024/03/05 00:31:35;;;;;;;135.07;42.15;;;6.80;99.90;;;-144.05;91.79;56965.66;5013012;28;20034;-82
2024/03/05 00:34:03;;;;;;;139.18;44.22;;;;;;;-144.05;92.12;56944.41;5016573;28;20030;-83
2024/03/05 00:36:29;;;;;;;143.15;43.20;;;;;;;-144.05;91.95;56984.78;5015052;28;20121;-78
2024/03/05 00:38:55;;;;;;;142.32;42.55;;;6.80;99.90;;;-144.05;91.98;56948.66;5011458;28;20101;-81
2024/03/05 00:41:22;;;;;;;148.40;45.30;;;6.60;99.90;;;-144.05;91.84;57010.25;5012018;28;20487;-81
2024/03/05 00:43:48;;;;;;;137.27;44.53;;;3.50;99.90;;;-144.05;92.06;56965.66;5011250;28;20022;-80
2024/03/05 00:46:13;;;;;;;154.65;47.50;;;6.40;99.90;;;-144.05;92.54;56955.03;5011425;28;20380;-80
2024/03/05 00:48:39;;;;;;;150.52;45.85;;;6.20;99.90;;;-144.05;92.23;56959.28;5010971;28;20026;-81
2024/03/05 00:51:08;;;;;;;138.27;44.47;;;6.30;99.90;;;-144.05;92.16;56995.38;5010342;28;20088;-80
2024/03/05 00:53:34;;;;;;;140.57;45.78;;;5.80;99.90;;;-144.05;91.63;57010.25;5009831;28;20132;-81
2024/03/05 00:56:00;;;;;;;127.38;41.60;;;;;;;-144.05;91.95;56974.16;5010361;28;20030;-81
2024/03/05 00:58:27;;;;;;;126.97;42.85;;;;;;;-144.05;91.68;56995.38;5019087;28;20115;-81
2024/03/05 01:00:54;;;;;;;128.80;40.67;;;3.70;99.90;;;-144.05;91.79;56995.38;5011626;28;20025;-82
2024/03/05 01:03:20;;;;;;;132.75;42.60;;;;;;;-144.05;91.79;56965.66;5010627;28;20113;-80
2024/03/05 01:05:47;;;;;;;118.13;39.08;;;;;;;-144.05;91.37;57010.25;5010220;28;20144;-80
2024/03/05 01:08:12;;;;;;;99.82;36.40;;;1.40;99.90;;;-144.05;91.27;56959.28;5011342;28;20030;-82
2024/03/05 01:10:41;;;;;;;112.13;37.83;;;;;;;-144.05;91.45;57003.88;5011189;28;20041;-80
2024/03/05 01:13:07;;;;;;;99.22;35.72;;;1.50;99.90;;;-144.05;91.46;56980.53;5010960;28;20114;-82
2024/03/05 01:15:33;;;;;;;104.45;36.38;;;;;;;-144.05;91.55;56982.66;5010176;28;20034;-81
2024/03/05 01:18:01;;;;;;;106.88;36.35;;;1.50;99.90;;;-144.05;91.38;56984.78;5009824;28;20060;-82
2024/03/05 01:20:27;;;;;;;123.55;39.67;;;1.50;99.90;;;-144.05;91.48;56972.03;5011298;28;20049;-80
2024/03/05 01:22:53;;;;;;;120.90;40.22;;;;;;;-144.05;91.56;57006.00;5011671;28;20022;-81
2024/03/05 01:25:19;;;;;;;123.63;41.08;;;1.40;99.90;;;-144.05;91.67;56986.91;5016301;28;20038;-83
2024/03/05 01:27:45;;;;;;;127.72;40.72;;;;;;;-144.05;91.48;56976.28;5015739;28;20033;-84
2024/03/05 01:30:13;;;;;;;125.72;41.08;;;;;;;-144.05;91.16;56980.53;5017159;28;20104;-81
2024/03/05 01:32:40;;;;;;;134.15;43.10;;;6.60;99.90;;;-144.05;91.32;56986.91;5016883;28;20030;-80
2024/03/05 01:35:12;;;;;;;125.93;40.35;;;6.20;99.90;;;-144.05;91.18;56978.41;5015893;28;20053;-82
2024/03/05 01:37:40;;;;;;;124.80;38.35;;;6.50;99.90;;;-144.05;91.27;56984.78;5014613;28;20101;-82
2024/03/05 01:40:08;;;;;;;124.15;39.83;;;6.20;99.90;;;-144.05;91.34;56965.66;5015608;28;20042;-83
2024/03/05 01:42:35;;;;;;;135.45;43.28;;;;;;;-144.05;91.58;56982.66;5014329;28;20026;-80
2024/03/05 01:45:01;;;;;;;114.00;37.33;;;6.50;99.90;;;-144.05;91.37;56986.91;5014420;28;20029;-81
2024/03/05 01:47:29;;;;;;;110.53;38.00;;;;;;;-144.05;91.43;56972.03;5015915;28;20034;-80
2024/03/05 01:49:56;;;;;;;110.93;37.25;;;6.70;99.90;;;-144.05;91.60;56980.53;5014883;28;20036;-81
2024/03/05 01:52:23;;;;;;;111.40;38.70;;;1.60;99.90;;;-144.05;91.44;56976.28;5014050;28;20486;-83
2024/03/05 01:55:01;;;;;;;111.82;36.28;;;1.80;99.90;;;-144.05;91.51;56978.41;5013525;28;20036;-79
2024/03/05 01:57:27;;;;;;;109.93;36.22;;;;;;;-144.05;91.23;56972.03;5026283;28;20159;-78
2024/03/05 01:59:53;;;;;;;107.35;35.95;;;3.20;99.90;;;-144.05;91.38;57010.25;5012878;28;20065;-82
2024/03/05 02:02:20;;;;;;;126.75;41.58;;;;;;;-144.05;91.82;56963.53;5012736;28;20038;-80
2024/03/05 02:04:47;;;;;;;122.05;39.58;;;3.20;99.90;;;-144.05;91.98;56965.66;5013965;28;20030;-82
2024/03/05 02:07:14;;;;;;;146.18;41.72;;;3.50;99.90;;;-144.05;91.97;56986.91;5012957;28;20490;-82
2024/03/05 02:09:41;;;;;;;129.13;44.58;;;;;;;-144.05;92.35;56955.03;5012658;28;20439;-82
2024/03/05 02:12:07;;;;;;;132.43;40.47;;;3.50;99.90;;;-144.05;92.03;56982.66;5014364;28;20446;-83
2024/03/05 02:14:34;;;;;;;142.63;44.50;;;;;;;-144.05;91.73;56976.28;5014306;28;20029;-81
2024/03/05 02:17:01;;;;;;;127.65;40.90;;;;;;;-144.05;92.01;56986.91;5014357;28;20117;-81
2024/03/05 02:19:28;;;;;;;139.82;43.30;;;6.50;99.90;;;-144.05;92.21;56991.13;5013370;28;20081;-83
2024/03/05 02:22:02;;;;;;;133.57;43.03;;;6.40;99.90;;;-144.05;92.28;56999.63;5014956;28;20124;-82
2024/03/05 02:24:29;;;;;;;124.68;41.80;;;6.40;99.90;;;-144.05;92.01;56982.66;5026401;28;20029;-79
2024/03/05 02:26:56;;;;;;;130.18;42.10;;;6.60;99.90;;;-144.05;92.34;56967.78;5013733;28;20034;-80
2024/03/05 02:29:24;;;;;;;132.82;42.92;;;6.40;99.90;;;-144.05;92.20;56995.38;5013407;28;20562;-82
2024/03/05 02:31:51;;;;;;;125.72;42.65;;;6.50;99.90;;;-144.05;92.33;56978.41;5013850;28;20049;-80
2024/03/05 02:34:17;;;;;;;138.90;44.53;;;6.70;99.90;;;-144.05;92.38;56955.03;5013613;28;20030;-83
2024/03/05 02:36:43;;;;;;;121.22;40.28;;;6.90;99.90;;;-144.05;92.38;56986.91;5011522;28;20037;-80
2024/03/05 02:39:09;;;;;;;146.07;48.50;;;6.80;99.90;;;-144.05;92.38;56993.25;5013263;28;20037;-82
2024/03/05 02:41:40;;;;;;;140.27;44.95;;;6.40;99.90;;;-144.05;92.61;56995.38;5012156;28;20022;-83
2024/03/05 02:44:06;;;;;;;130.65;43.10;;;6.40;99.90;;;-144.05;92.16;56972.03;5011914;28;20161;-79
2024/03/05 02:46:33;;;;;;;143.90;45.65;;;;;;;-144.05;92.34;56978.41;5013375;28;20030;-80
2024/03/05 02:48:59;;;;;;;119.47;41.58;;;6.20;99.90;;;-144.05;92.46;57008.13;5012997;28;20113;-80
2024/03/05 02:51:25;;;;;;;133.73;43.47;;;6.60;99.90;;;-144.05;92.54;56974.16;5013576;28;20033;-82
2024/03/05 02:53:51;;;;;;;126.47;42.40;;;6.60;99.90;;;-144.05;92.72;56961.41;5012115;28;20391;-83
2024/03/05 02:56:17;;;;;;;131.52;44.42;;;6.70;99.90;;;-144.05;92.38;56972.03;5011702;28;20065;-82
2024/03/05 02:58:43;;;;;;;121.78;41.63;;;;;;;-144.05;92.58;56978.41;5028320;28;20042;-82
2024/03/05 03:01:10;;;;;;;118.60;42.72;;;;;;;-144.05;92.47;56986.91;5012166;28;20475;-82
2024/03/05 03:03:36;;;;;;;129.40;41.53;;;6.40;99.90;;;-144.05;92.35;56965.66;5011907;28;20413;-81
2024/03/05 03:06:03;;;;;;;120.80;39.00;;;6.60;99.90;;;-144.05;92.66;56991.13;5013243;28;20026;-81
2024/03/05 03:08:30;;;;;;;114.75;39.15;;;;;;;-144.05;92.42;56942.28;5013329;28;20466;-82
2024/03/05 03:10:56;;;;;;;126.03;42.15;;;6.90;99.90;;;-144.05;92.42;56978.41;5013134;28;20029;-82
2024/03/05 03:13:23;;;;;;;109.38;37.65;;;;;;;-144.05;92.38;56980.53;5008772;28;20045;-82
2024/03/05 03:15:50;;;;;;;118.88;39.45;;;5.80;99.90;;;-144.05;92.37;56961.41;5011897;28;20040;-81
2024/03/05 03:18:16;;;;;;;123.63;39.97;;;6.70;99.90;;;-144.05;92.33;56993.25;5013143;28;20034;-80
2024/03/05 03:20:42;;;;;;;112.70;38.60;;;6.60;99.90;;;-144.05;92.19;56982.66;5013813;28;20051;-82
2024/03/05 03:23:08;;;;;;;125.15;39.90;;;;;;;-144.05;92.19;57008.13;5013380;28;20030;-82
2024/03/05 03:25:34;;;;;;;103.78;35.97;;;6.50;99.90;;;-144.05;92.35;56995.38;5014256;28;20034;-82
2024/03/05 03:28:00;;;;;;;103.03;33.60;;;;;;;-144.05;92.44;56965.66;5021641;28;20025;-82
2024/03/05 03:30:29;;;;;;;116.68;37.63;;;6.60;99.90;;;-144.05;92.26;56976.28;5041084;28;20090;-83
2024/03/05 03:32:56;;;;;;;109.60;40.17;;;;;;;-144.05;92.15;56991.13;5041107;28;20052;-83
2024/03/05 03:35:23;;;;;;;114.18;39.65;;;;;;;-144.05;92.48;56957.16;5016819;28;20125;-82
2024/03/05 03:37:48;;;;;;;130.30;42.03;;;7.10;99.90;;;-144.05;92.06;56982.66;5021725;28;20037;-85
2024/03/05 03:40:21;;;;;;;126.45;40.38;;;6.80;99.90;;;-144.05;92.27;56965.66;5037949;28;20041;-82
2024/03/05 03:42:50;;;;;;;129.40;41.42;;;6.70;99.90;;;-144.05;92.42;56972.03;5028801;28;20081;-79
2024/03/05 03:45:18;;;;;;;134.18;44.28;;;6.40;99.90;;;-144.05;92.26;56986.91;5030934;28;20037;-80
2024/03/05 03:47:46;;;;;;;127.45;44.47;;;6.40;99.90;;;-144.05;92.20;56969.91;5025059;28;20080;-81
2024/03/05 03:50:12;;;;;;;123.95;40.47;;;6.70;99.90;;;-144.05;92.22;56974.16;5011479;28;20057;-80
2024/03/05 03:52:41;;;;;;;124.30;41.78;;;6.40;99.90;;;-144.05;92.18;56974.16;5012733;28;20433;-82
2024/03/05 03:55:08;;;;;;;129.70;41.03;;;6.40;99.90;;;-144.05;92.08;56972.03;5012830;28;20021;-79
2024/03/05 03:57:34;;;;;;;126.07;42.08;;;6.90;99.90;;;-144.05;92.28;56993.25;5010904;28;20025;-80
2024/03/05 04:00:07;;;;;;;120.15;41.03;;;6.60;99.90;;;-144.05;92.04;56982.66;5012211;28;20135;-80
2024/03/05 04:02:36;;;;;;;124.75;40.90;;;6.30;99.90;;;-144.05;92.32;56984.78;5011149;28;20041;-80
2024/03/05 04:05:09;;;;;;;119.93;39.13;;;6.50;99.90;;;-144.05;92.31;56955.03;5010799;28;20030;-81
2024/03/05 04:07:36;;;;;;;124.60;38.83;;;;;;;-144.05;92.31;56978.41;5010709;28;20155;-80
2024/03/05 04:10:10;;;;;;;107.53;36.15;;;6.00;99.90;;;-144.05;92.36;56982.66;5011645;28;20063;-79
2024/03/05 04:12:39;;;;;;;132.50;42.78;;;6.80;99.90;;;-144.05;92.46;56980.53;5010413;28;20045;-79
2024/03/05 04:15:08;;;;;;;122.82;44.40;;;6.50;99.90;;;-144.05;92.32;56974.16;5010332;28;20472;-81
2024/03/05 04:17:37;;;;;;;112.32;37.67;;;;;;;-144.05;92.49;56980.53;5011271;28;20108;-81
2024/03/05 04:20:08;;;;;;;123.97;39.22;;;;;;;-144.05;92.38;56982.66;5011807;28;20456;-79
2024/03/05 04:22:37;;;;;;;126.20;42.05;;;;;;;-144.05;92.38;56976.28;5011451;28;20028;-79
2024/03/05 04:25:05;;;;;;;125.32;43.53;;;6.50;99.90;;;-144.05;92.19;56961.41;5011231;28;20383;-79
2024/03/05 04:27:31;;;;;;;120.53;39.30;;;;;;;-144.05;92.51;56950.78;5026129;28;20022;-79
2024/03/05 04:29:59;;;;;;;129.00;40.75;;;;;;;-144.05;92.36;56993.25;5010875;28;20030;-80
2024/03/05 04:32:26;;;;;;;110.70;37.03;;;6.40;99.90;;;-144.05;92.40;56989.00;5010197;28;20122;-79
2024/03/05 04:35:02;;;;;;;116.13;38.78;;;6.70;99.90;;;-144.05;92.53;57018.75;5011139;28;20022;-81
2024/03/05 04:37:30;;;;;;;127.15;39.17;;;6.20;99.90;;;-144.05;92.61;56965.66;5007061;28;20029;-81
2024/03/05 04:39:57;;;;;;;122.50;40.58;;;6.40;99.90;;;-144.05;92.66;56963.53;5011126;28;20054;-79
2024/03/05 04:42:25;;;;;;;114.50;36.22;;;6.20;99.90;;;-144.05;92.57;56955.03;5005219;28;20022;-82
2024/03/05 04:44:53;;;;;;;130.85;42.65;;;6.20;99.90;;;-144.05;92.74;56982.66;5011121;28;20497;-82
2024/03/05 04:47:19;;;;;;;114.40;39.78;;;;;;;-144.05;92.57;56984.78;5011166;28;20073;-80
2024/03/05 04:49:45;;;;;;;122.72;40.88;;;6.40;99.90;;;-144.05;92.72;56974.16;5009519;28;20519;-80
2024/03/05 04:52:11;;;;;;;134.30;39.47;;;3.60;99.90;;;-144.05;92.86;56955.03;5011168;28;20204;-81
2024/03/05 04:54:37;;;;;;;117.18;40.22;;;;;;;-144.05;92.91;57003.88;5010883;28;20097;-82
2024/03/05 04:57:05;;;;;;;124.65;40.15;;;3.50;99.90;;;-144.05;92.71;56965.66;5011020;28;20034;-80
2024/03/05 04:59:32;;;;;;;120.57;39.13;;;6.90;99.90;;;-144.05;92.95;56982.66;5012824;28;20030;-82
2024/03/05 05:01:58;;;;;;;115.47;36.80;;;6.80;99.90;;;-144.05;93.10;56997.50;5015056;28;20033;-81
2024/03/05 05:04:24;;;;;;;118.68;37.85;;;6.70;99.90;;;-144.05;93.03;56980.53;5015032;28;20471;-82
2024/03/05 05:06:50;;;;;;;108.85;37.92;;;7.00;99.90;;;-144.05;92.92;57003.88;5013409;28;20029;-80
2024/03/05 05:09:20;;;;;;;124.55;39.00;;;6.80;99.90;;;-144.05;93.23;56961.41;5013061;28;20483;-82
2024/03/05 05:11:47;;;;;;;137.20;46.42;;;7.00;99.90;;;-144.05;93.15;56995.38;5030171;28;20487;-82
2024/03/05 05:14:13;;;;;;;125.18;37.08;;;;;;;-144.05;93.11;56976.28;5013801;28;20028;-79
2024/03/05 05:16:39;;;;;;;119.68;38.67;;;6.40;99.90;;;-144.05;92.88;56974.16;5013694;28;20062;-81
2024/03/05 05:19:05;;;;;;;121.28;38.65;;;;;;;-144.05;92.94;56950.78;5014737;28;20040;-81
2024/03/05 05:21:33;;;;;;;110.07;36.13;;;3.70;99.90;;;-144.05;93.18;56965.66;5015600;28;20064;-80
2024/03/05 05:23:59;;;;;;;116.90;38.20;;;6.80;99.90;;;-144.05;93.26;56999.63;5014618;28;20088;-80
2024/03/05 05:26:25;;;;;;;137.00;43.40;;;6.60;99.90;;;-144.05;93.09;56982.66;5013797;28;20037;-82
2024/03/05 05:28:51;;;;;;;136.75;43.15;;;6.60;99.90;;;-144.05;93.50;56972.03;5030179;28;20025;-82
2024/03/05 05:31:28;;;;;;;127.05;41.08;;;6.60;99.90;;;-144.05;93.49;56982.66;5013508;28;20038;-81
2024/03/05 05:33:56;;;;;;;120.03;40.58;;;6.70;99.90;;;-144.05;93.12;56972.03;5030217;28;20022;-81
2024/03/05 05:36:24;;;;;;;134.98;41.42;;;6.60;99.90;;;-144.05;93.40;56980.53;5015209;28;20060;-83
2024/03/05 05:38:50;;;;;;;116.72;38.13;;;6.60;99.90;;;-144.05;93.48;56978.41;5015122;28;20030;-80
2024/03/05 05:41:18;;;;;;;130.32;41.60;;;6.60;99.90;;;-144.05;93.53;56982.66;5014186;28;20076;-82
2024/03/05 05:43:45;;;;;;;110.30;38.25;;;7.20;99.90;;;-144.05;93.17;56980.53;5014700;28;20156;-79
2024/03/05 05:46:21;;;;;;;113.82;37.45;;;7.00;99.90;;;-144.05;92.96;56969.91;5013425;28;20026;-80
2024/03/05 05:48:49;;;;;;;116.63;38.25;;;6.50;99.90;;;-144.05;92.99;56952.91;5014765;28;20026;-81
2024/03/05 05:51:18;;;;;;;122.85;40.15;;;7.10;99.90;;;-144.05;93.19;56982.66;5014602;28;20029;-81
2024/03/05 05:53:45;;;;;;;120.55;39.45;;;6.60;99.90;;;-144.05;93.03;56972.03;5014581;28;20049;-81
2024/03/05 05:56:14;;;;;;;109.00;38.58;;;6.60;99.90;;;-144.05;93.24;56980.53;5015057;28;20336;-81
2024/03/05 05:58:40;;;;;;;131.60;42.67;;;3.80;99.90;;;-144.05;93.32;56961.41;5032568;28;20022;-81
2024/03/05 06:01:06;;;;;;;112.28;38.45;;;3.60;99.90;;;-144.05;93.24;56997.50;5016643;28;20053;-81
2024/03/05 06:03:37;;;;;;;116.82;39.40;;;7.10;99.90;;;-144.05;93.27;56982.66;5017573;28;20041;-80
2024/03/05 06:06:06;;;;;;;132.30;41.35;;;;;;;-144.05;93.04;56978.41;5032315;28;20483;-80
2024/03/05 06:08:33;;;;;;;118.45;41.17;;;6.60;99.90;;;-144.05;92.98;56950.78;5017492;28;20473;-82
2024/03/05 06:10:59;;;;;;;117.45;39.80;;;6.60;99.90;;;-144.05;92.87;56969.91;5016127;28;20674;-83
2024/03/05 06:13:25;;;;;;;116.25;39.88;;;3.80;99.90;;;-144.05;92.36;56976.28;5016081;28;20033;-81
2024/03/05 06:15:51;;;;;;;131.52;42.78;;;7.60;99.90;;;-144.05;92.20;56980.53;5016687;28;20509;-80
2024/03/05 06:18:18;;;;;;;131.43;41.95;;;;;;;-144.05;91.89;56980.53;5016314;28;20030;-80
2024/03/05 06:20:44;;;;;;;129.85;42.67;;;;;;;-144.05;91.88;56974.16;5016942;28;20018;-81
2024/03/05 06:23:11;;;;;;;132.27;42.58;;;7.50;99.90;;;-144.05;92.09;56982.66;5020335;28;20030;-81
2024/03/05 06:25:39;;;;;;;128.38;42.70;;;6.70;99.90;;;-144.05;91.77;56963.53;5019657;28;20018;-79
2024/03/05 06:28:09;;;;;;;139.88;43.65;;;6.80;99.90;;;-144.05;91.73;56980.53;5017333;28;20033;-77
2024/03/05 06:30:36;;;;;;;131.80;41.38;;;;;;;-144.05;91.41;56986.91;5016764;28;20518;-80
2024/03/05 06:33:04;;;;;;;120.35;41.25;;;7.40;99.90;;;-144.05;91.20;56959.28;5016618;28;20033;-81
2024/03/05 06:35:31;;;;;;;127.13;40.25;;;3.90;99.90;;;-144.05;91.17;56976.28;5015087;28;20026;-79
2024/03/05 06:38:00;;;;;;;109.70;38.03;;;;;;;-144.05;91.00;56959.28;5016611;28;20029;-81
2024/03/05 06:40:26;;;;;;;109.28;37.45;;;6.50;99.90;;;-144.05;90.64;56976.28;5011081;28;20052;-82
2024/03/05 06:42:52;;;;;;;125.95;39.80;;;;;;;-144.05;90.77;56974.16;5017973;28;20014;-80
2024/03/05 06:45:27;;;;;;;157.18;56.33;;;7.80;99.90;;;-144.05;90.45;56935.91;5018018;28;20079;-82
2024/03/05 06:47:57;;;;;;;114.57;43.55;;;3.60;99.90;;;-144.05;90.48;56963.53;5018241;28;20108;-81
2024/03/05 06:50:31;;;;;;;126.70;42.53;;;6.90;99.90;;;-144.05;90.38;56972.03;5013090;28;20022;-81
2024/03/05 06:58:26;;;;;;;109.45;37.92;;;7.20;99.90;;;-144.05;90.42;56959.28;5012721;28;20079;-82
2024/03/05 07:00:53;;;;;;;110.85;36.03;;;;;;;-144.05;90.30;56948.66;5018193;28;20029;-82
2024/03/05 07:03:18;;;;;;;112.40;36.25;;;4.80;99.90;;;-144.05;90.49;56984.78;5018579;28;20071;-83
2024/03/05 07:05:45;;;;;;;105.75;34.42;;;;;;;-144.05;90.21;56948.66;5017155;28;20108;-78
2024/03/05 07:08:11;;;;;;;107.57;35.35;;;4.70;99.90;;;-144.05;90.29;56967.78;5016765;28;20030;-82
2024/03/05 07:10:38;;;;;;;113.90;36.38;;;7.30;99.90;;;-144.05;90.09;56969.91;5033259;28;20022;-80
2024/03/05 07:13:04;;;;;;;114.30;37.15;;;7.40;99.90;;;-144.05;90.22;56946.53;5031858;28;20040;-82
2024/03/05 07:15:30;;;;;;;103.43;36.83;;;7.00;99.90;;;-144.05;89.56;56967.78;5014440;28;20029;-80
2024/03/05 07:17:56;;;;;;;102.40;33.17;;;6.90;99.90;;;-144.05;89.48;56967.78;5015591;28;20426;-81
2024/03/05 07:20:24;;;;;;;97.28;33.42;;;4.60;99.90;;;-144.05;89.40;56957.16;5010382;28;20116;-79
2024/03/05 07:22:55;;;;;;;101.10;35.80;;;7.60;99.90;;;-144.05;88.72;56972.03;5013825;28;20026;-81
2024/03/05 07:25:22;;;;;;;101.80;34.42;;;8.60;99.90;;;-144.05;88.68;56957.16;5017126;28;20026;-82
2024/03/05 07:27:50;;;;;;;104.40;35.38;;;6.80;99.90;;;-144.05;88.35;56933.78;5017448;28;20033;-83
2024/03/05 07:30:20;;;;;;;103.95;34.03;;;6.80;99.90;;;-144.05;88.17;56948.66;5019102;28;20026;-82
2024/03/05 07:32:48;;;;;;;97.32;33.45;;;8.90;99.90;;;-144.05;88.01;56967.78;5032133;28;20030;-81
2024/03/05 07:35:18;;;;;;;97.13;34.92;;;;;;;-144.05;87.52;56940.16;5015926;28;20022;-81
2024/03/05 07:37:46;;;;;;;92.63;32.72;;;8.70;99.90;;;-144.05;87.25;56957.16;5017366;28;20029;-82
2024/03/05 07:40:17;;;;;;;87.30;30.98;;;8.10;99.90;;;-144.05;86.06;56942.28;5018202;28;20018;-82
2024/03/05 07:42:53;;;;;;;83.72;31.38;;;9.10;99.90;;;-144.05;85.71;56957.16;5017197;28;20052;-81
2024/03/05 07:45:22;;;;;;;90.93;31.58;;;7.50;99.90;;;-144.05;84.91;56969.91;5017355;28;20069;-82
2024/03/05 07:47:50;;;;;;;80.40;32.28;;;7.20;99.90;;;-144.05;84.40;56963.53;5016856;28;20045;-80
2024/03/05 07:50:17;;;;;;;80.72;30.00;;;8.70;99.90;;;-144.05;84.10;56946.53;5014963;28;20129;-83
2024/03/05 07:52:47;;;;;;;77.20;30.45;;;8.80;99.90;;;-144.05;84.26;56961.41;5015723;28;20022;-80
2024/03/05 07:55:18;;;;;;;84.70;30.90;;;8.30;99.90;;;-144.05;82.84;56967.78;5015473;28;20022;-81
2024/03/05 07:57:45;;;;;;;81.38;30.83;;;6.70;99.90;;;-144.05;82.73;56965.66;5020426;28;20022;-77
2024/03/05 08:00:13;;;;;;;81.10;31.75;;;6.90;99.90;;;-144.05;82.20;56959.28;5022112;28;20104;-81
2024/03/05 08:02:45;;;;;;;79.82;31.25;;;7.60;99.90;;;-144.05;82.21;56984.78;5024618;28;20030;-81
2024/03/05 08:05:21;;;;;;;80.68;31.88;;;7.50;99.90;;;-144.05;82.14;56955.03;5024143;28;20029;-80
2024/03/05 08:07:59;;;;;;;81.30;30.17;;;8.50;99.90;;;-144.05;81.44;56944.41;5038394;28;20041;-84
2024/03/05 08:10:26;;;;;;;79.88;31.50;;;;;;;-144.05;80.21;56955.03;5010714;28;20117;-81
2024/03/05 08:12:55;;;;;;;74.70;31.33;;;10.60;99.90;;;-144.05;80.09;56963.53;5015782;28;20092;-80
2024/03/05 08:15:26;;;;;;;74.55;30.55;;;8.60;99.90;;;-144.05;80.06;56955.03;5017008;28;20045;-80
2024/03/05 08:17:53;;;;;;;80.68;31.30;;;8.00;99.90;;;-144.05;79.90;56967.78;5032315;28;20026;-81
2024/03/05 08:20:25;;;;;;;82.72;32.53;;;8.70;99.90;;;-144.05;79.97;56978.41;5016740;28;20110;-80
2024/03/05 08:22:53;;;;;;;79.75;30.80;;;6.90;99.90;;;-144.05;79.65;56961.41;5017710;28;20085;-80
2024/03/05 08:25:21;;;;;;;75.45;29.95;;;10.60;99.90;;;-144.05;79.77;56978.41;5017972;28;20258;-81
2024/03/05 08:27:55;;;;;;;74.78;30.10;;;13.90;99.90;;;-144.05;79.16;56978.41;5015545;28;20060;-82
2024/03/05 08:30:24;;;;;;;74.32;30.73;;;10.50;99.90;;;-144.05;78.48;56959.28;5016245;28;20042;-82
2024/03/05 08:32:52;;;;;;;76.45;30.70;;;8.10;99.90;;;-144.05;77.32;56942.28;5016833;28;20041;-81
2024/03/05 08:35:19;;;;;;;75.28;31.00;;;9.30;99.90;;;-144.05;77.00;56948.66;5015063;28;20025;-82
2024/03/05 08:37:50;;;;;;;75.20;30.23;;;10.80;99.90;;;-144.05;76.56;56940.16;5016537;28;20029;-80
2024/03/05 08:40:20;;;;;;;76.65;31.35;;;10.40;99.90;;;-144.05;75.46;56963.53;5016283;28;20113;-80
2024/03/05 08:42:50;;;;;;;77.13;31.02;;;10.60;99.90;;;-144.05;74.41;56950.78;5015770;28;20030;-78
2024/03/05 08:45:23;;;;;;;65.75;28.88;;;9.80;99.90;;;-144.05;73.84;56927.41;5016898;28;20026;-79
2024/03/05 08:47:54;;;;;;;69.05;28.05;;;14.10;99.90;;;-144.05;72.51;56978.41;5016074;28;20026;-78
2024/03/05 08:50:22;;;;;;;63.13;28.00;;;10.10;99.90;;;-144.05;72.02;56961.41;5016408;28;20030;-82
2024/03/05 08:52:48;;;;;;;61.00;26.83;;;8.60;99.90;;;-144.05;71.90;56959.28;5014991;28;20030;-78
2024/03/05 08:55:17;;;;;;;68.93;28.20;;;;;;;-144.05;71.28;56959.28;5015157;28;20014;-79
2024/03/05 08:57:44;;;;;;;61.00;26.20;;;10.80;99.90;;;-144.05;70.06;56944.41;5015685;28;20032;-80
2024/03/05 09:00:17;;;;;;;59.95;26.13;;;14.40;99.90;;;-144.05;67.53;56950.78;5015357;28;20034;-82
2024/03/05 09:02:44;;;;;;;56.53;27.25;;;;;;;-144.05;67.39;56967.78;5016362;28;20041;-80
2024/03/05 09:05:11;;;;;;;55.45;25.58;;;;;;;-144.05;66.43;56948.66;5031097;28;20038;-79
2024/03/05 09:07:42;;;;;;;56.67;25.88;;;14.80;99.90;;;-144.05;66.02;56925.28;5015495;28;20034;-82
2024/03/05 09:10:10;;;;;;;59.05;27.50;;;14.20;99.90;;;-144.05;64.99;56942.28;5031374;28;20443;-79
2024/03/05 09:12:36;;;;;;;62.00;28.00;;;14.70;99.90;;;-144.05;64.50;56978.41;5015015;28;20025;-82
2024/03/05 09:15:05;;;;;;;62.80;26.88;;;14.40;99.90;;;-144.05;64.53;56938.03;5016344;28;20068;-82
2024/03/05 09:17:33;;;;;;;55.00;26.80;;;14.60;99.90;;;-144.05;63.79;56935.91;5016527;28;20391;-82
2024/03/05 09:20:09;;;;;;;61.08;27.17;;;14.70;99.90;;;-144.05;64.25;56918.94;5016523;28;20537;-82
2024/03/05 09:22:35;;;;;;;57.53;27.80;;;14.10;99.90;;;-144.05;64.26;56950.78;5027465;28;20029;-82
2024/03/05 09:25:01;;;;;;;59.30;27.10;;;;;;;-144.05;63.80;56965.66;5033473;28;20060;-82
2024/03/05 09:27:27;;;;;;;61.47;27.42;;;;;;;-144.05;63.33;56963.53;5016906;28;20160;-82
2024/03/05 09:29:55;;;;;;;58.88;27.00;;;9.00;99.90;;;-144.05;63.34;56933.78;5016922;28;20085;-82
2024/03/05 09:32:21;;;;;;;55.15;26.67;;;;;;;-144.05;63.98;56940.16;5015197;28;20072;-84
2024/03/05 09:34:47;;;;;;;61.67;27.70;;;8.90;99.90;;;-144.05;63.89;56999.63;5013553;28;20139;-80
2024/03/05 09:37:12;;;;;;;51.95;26.60;;;14.60;99.90;;;-144.05;62.99;56967.78;5017708;28;20030;-82
2024/03/05 09:39:39;;;;;;;55.53;26.75;;;;;;;-144.05;62.60;56929.53;5016506;28;20140;-82
2024/03/05 09:42:05;;;;;;;53.58;26.33;;;14.80;99.90;;;-144.05;62.88;56963.53;5016034;28;20025;-82
2024/03/05 09:44:32;;;;;;;57.83;28.63;;;8.00;99.90;;;-144.05;62.49;56946.53;5015449;28;20441;-82
2024/03/05 09:47:01;;;;;;;53.53;25.27;;;11.40;99.90;;;-144.05;63.02;56959.28;5018956;28;20080;-83
2024/03/05 09:49:29;;;;;;;54.97;26.13;;;8.50;99.90;;;-144.05;62.96;56976.28;5016984;28;20021;-80
2024/03/05 09:51:56;;;;;;;54.45;27.10;;;7.40;99.90;;;-144.05;63.94;56942.28;5018412;28;20527;-81
2024/03/05 09:54:22;;;;;;;61.10;27.90;;;14.40;99.90;;;-144.05;64.36;56946.53;5022357;28;20022;-82
2024/03/05 09:56:53;;;;;;;56.75;27.05;;;7.80;99.90;;;-144.05;65.10;56961.41;5023134;28;20026;-83
2024/03/05 09:59:19;;;;;;;58.78;27.15;;;14.60;99.90;;;-144.05;64.85;56916.81;5022015;28;20091;-82
2024/03/05 10:01:49;;;;;;;56.42;26.30;;;14.50;99.90;;;-144.05;65.36;56955.03;5030622;28;20292;-81
2024/03/05 10:04:17;;;;;;;53.65;25.95;;;7.90;99.90;;;-144.05;64.83;56965.66;5017355;28;20028;-81
2024/03/05 10:06:47;;;;;;;53.63;25.90;;;7.60;99.90;;;-144.05;64.35;56989.00;5017008;28;20047;-82
2024/03/05 10:09:17;;;;;;;57.42;27.92;;;10.90;99.90;;;-144.05;65.40;56967.78;5016008;28;20590;-80
2024/03/05 10:11:45;;;;;;;57.22;27.73;;;14.60;99.90;;;-144.05;65.77;56946.53;5017304;28;20043;-82
2024/03/05 10:14:12;;;;;;;57.72;27.13;;;14.40;99.90;;;-144.05;65.35;56952.91;5032012;28;20121;-83
2024/03/05 10:16:39;;;;;;;56.45;27.02;;;7.60;99.90;;;-144.05;66.16;56952.91;5017358;28;20075;-80